Chennai, India
Current Conditions -  °F | °C
As of 11:10 AM on Friday 31 Oct 2014 (Local Time) from VOMM Reporting Station
Haze Haze  
Wind Chill: 30°   Ceiling: Unl
Heat Index: 35°   Visibility: 3mi
Dew Point: 24°   Wind: 9mph
Humidity: 70%   Direction: 10°N
Pressure: 29.83"   Gusts: NA
Location:  13.06°N, 80.25°E
Report Text: VOMM 310610Z 01008KT 5000 HZ SCT020 30/24 Q1010 NOSIG
Loading
Personal Weather Stations






























Interactive Weather Map
Tropical Storm Tracking
New forecast layout! Learn more

10-Day Weather Forecast

Advertisements
Track Severe Weather on mobile